Time;durP1;ratioP1;P1;durP2;ratioP2;P2;SDS_P1;SDS_P2;PMS_P1;PMS_P2;Temp;Humidity;BMP_temperature;BMP_pressure;BME280_temperature;BME280_humidity;BME280_pressure;Samples;Min_cycle;Max_cycle;Signal;HPM_P1;HPM_P2
2023/03/28 00:00:58;;;;;;;6.60;2.70;;;;;;;1.76;100.00;96865.47;5012050;28;101701;-65
2023/03/28 00:03:26;;;;;;;2.73;2.47;;;;;;;1.73;100.00;96873.69;5010016;28;103748;-66
2023/03/28 00:05:56;;;;;;;4.20;2.80;;;;;;;1.71;100.00;96875.69;5043573;27;103825;-66
2023/03/28 00:08:23;;;;;;;3.37;2.80;;;;;;;1.73;100.00;96871.06;5010444;28;101869;-66
2023/03/28 00:10:50;;;;;;;3.43;2.60;;;;;;;1.70;100.00;96866.19;5009940;28;105050;-66
2023/03/28 00:13:18;;;;;;;3.83;2.53;;;;;;;1.67;100.00;96870.00;5013177;28;105293;-66
2023/03/28 00:15:47;;;;;;;4.00;2.60;;;;;;;1.66;100.00;96867.56;5010199;28;104831;-66
2023/03/28 00:18:14;;;;;;;3.87;2.70;;;;;;;1.65;100.00;96865.94;5008758;28;104970;-66
2023/03/28 00:20:43;;;;;;;3.80;2.83;;;;;;;1.69;100.00;96869.81;5009259;28;102053;-66
2023/03/28 00:23:10;;;;;;;2.80;2.60;;;;;;;1.66;100.00;96875.41;5010123;28;105291;-66
2023/03/28 00:25:40;;;;;;;3.57;3.23;;;;;;;1.68;100.00;96874.25;5009650;28;105183;-66
2023/03/28 00:28:08;;;;;;;3.50;3.20;;;;;;;1.68;100.00;96873.41;5009801;28;101638;-66
2023/03/28 00:30:35;;;;;;;4.83;3.27;;;;;;;1.65;100.00;96884.28;5010100;28;105301;-66
2023/03/28 00:33:05;;;;;;;3.90;3.00;;;;;;;1.68;100.00;96886.53;5009246;28;105728;-66
2023/03/28 00:35:32;;;;;;;2.90;2.70;;;;;;;1.65;100.00;96889.53;5013463;28;101927;-66
2023/03/28 00:37:59;;;;;;;3.77;3.17;;;;;;;1.62;100.00;96893.31;5009396;28;105361;-65
2023/03/28 00:40:26;;;;;;;3.13;2.83;;;;;;;1.61;100.00;96888.25;5009928;28;102160;-66
2023/03/28 00:42:53;;;;;;;4.90;3.10;;;;;;;1.58;100.00;96888.66;5009552;28;104798;-66
2023/03/28 00:45:22;;;;;;;5.00;3.40;;;;;;;1.62;100.00;96895.13;5009175;28;104103;-66
2023/03/28 00:47:53;;;;;;;3.77;3.10;;;;;;;1.55;100.00;96897.69;5009644;28;101984;-66
2023/03/28 00:50:26;;;;;;;4.77;3.07;;;;;;;1.52;100.00;96894.59;5009853;28;104956;-66
2023/03/28 00:52:57;;;;;;;4.17;3.70;;;;;;;1.54;100.00;96898.66;5008934;28;104343;-66
2023/03/28 00:55:28;;;;;;;5.10;3.60;;;;;;;1.53;100.00;96896.22;5009714;28;101971;-66
2023/03/28 00:57:56;;;;;;;4.17;3.73;;;;;;;1.48;100.00;96906.44;5012533;28;105256;-66
2023/03/28 01:00:24;;;;;;;5.47;3.60;;;;;;;1.48;100.00;96916.94;5009421;28;102239;-66
2023/03/28 01:02:55;;;;;;;4.67;3.70;;;;;;;1.47;100.00;96920.50;5043230;27;104816;-66
2023/03/28 01:05:27;;;;;;;5.50;3.77;;;;;;;1.47;100.00;96915.28;5010241;28;104130;-66
2023/03/28 01:07:59;;;;;;;5.97;3.87;;;;;;;1.46;100.00;96916.28;5009441;28;101869;-66
2023/03/28 01:10:26;;;;;;;4.77;4.13;;;;;;;1.46;100.00;96916.28;5009493;28;105190;-66
2023/03/28 01:12:56;;;;;;;6.13;3.70;;;;;;;1.44;100.00;96923.50;5008490;28;103796;-66
2023/03/28 01:15:23;;;;;;;4.20;3.80;;;;;;;1.41;100.00;96929.94;5009358;28;102135;-66
2023/03/28 01:18:09;;;;;;;4.43;3.60;;;;;;;1.44;100.00;96928.75;5009092;28;105384;-66
2023/03/28 01:21:06;;;;;;;5.30;4.07;;;;;;;1.45;100.00;96925.13;5011788;28;105873;-66
2023/03/28 01:24:07;;;;;;;4.43;3.77;;;;;;;1.44;100.00;96929.59;5010757;28;102365;-66
2023/03/28 01:26:47;;;;;;;4.50;4.00;;;;;;;1.47;100.00;96923.97;5006861;28;105103;-66
2023/03/28 01:29:53;;;;;;;5.37;3.57;;;;;;;1.48;100.00;96924.78;5042879;27;102069;-66
2023/03/28 01:33:08;;;;;;;6.10;4.13;;;;;;;1.45;100.00;96930.38;5008394;28;104863;-66
2023/03/28 01:36:22;;;;;;;4.23;3.80;;;;;;;1.42;100.00;96936.00;5009975;28;102483;-66
2023/03/28 01:38:59;;;;;;;5.40;3.73;;;;;;;1.42;100.00;96936.78;5010512;28;102011;-66
2023/03/28 01:41:38;;;;;;;4.97;3.40;;;;;;;1.39;100.00;96933.72;5010597;28;102640;-66
2023/03/28 01:44:10;;;;;;;4.57;3.70;;;;;;;1.37;100.00;96933.91;5041980;27;105400;-66
2023/03/28 01:46:40;;;;;;;5.63;4.37;;;;;;;1.37;100.00;96940.97;5046064;27;101923;-66
2023/03/28 01:49:10;;;;;;;5.50;3.73;;;;;;;1.33;100.00;96935.28;5007723;28;105236;-66
2023/03/28 01:51:50;;;;;;;4.30;3.90;;;;;;;1.28;100.00;96940.22;5008765;28;101953;-66
2023/03/28 01:54:28;;;;;;;4.33;3.93;;;;;;;1.30;100.00;96940.03;5008967;28;104896;-65
2023/03/28 01:57:02;;;;;;;4.83;4.07;;;;;;;1.31;100.00;96944.31;5008259;28;105478;-65
2023/03/28 01:59:39;;;;;;;4.87;4.37;;;;;;;1.34;100.00;96941.31;5008792;28;101795;-65
2023/03/28 02:02:29;;;;;;;4.33;3.90;;;;;;;1.32;100.00;96935.44;5010054;28;102293;-65
2023/03/28 02:05:05;;;;;;;5.30;3.97;;;;;;;1.32;100.00;96945.94;5041980;27;105531;-65
2023/03/28 02:07:39;;;;;;;5.70;3.73;;;;;;;1.31;100.00;96944.31;5008830;28;102005;-65
2023/03/28 02:10:15;;;;;;;4.37;3.93;;;;;;;1.26;100.00;96942.19;5044992;27;104860;-66
2023/03/28 02:13:05;;;;;;;6.27;4.03;;;;;;;1.26;100.00;96947.44;5008337;28;101756;-66
2023/03/28 02:15:52;;;;;;;4.10;3.70;;;;;;;1.28;100.00;96947.25;5008675;28;104751;-65
2023/03/28 02:18:23;;;;;;;4.97;4.17;;;;;;;1.29;100.00;96951.50;5008726;28;101787;-65
2023/03/28 02:21:19;;;;;;;4.60;4.20;;;;;;;1.24;100.00;96948.59;5009676;28;101929;-65
2023/03/28 02:24:01;;;;;;;4.80;4.40;;;;;;;1.24;100.00;96948.59;5008414;28;104870;-66
2023/03/28 02:26:55;;;;;;;5.97;4.43;;;;;;;1.25;100.00;96951.06;5007763;28;105542;-66
2023/03/28 02:29:43;;;;;;;4.30;3.90;;;;;;;1.24;100.00;96949.44;4997875;28;101982;-66
2023/03/28 02:32:20;;;;;;;6.93;4.33;;;;;;;1.26;100.00;96954.50;5011176;28;104910;-66
2023/03/28 02:34:50;;;;;;;6.17;4.87;;;;;;;1.22;100.00;96950.59;5008437;28;101752;-65
2023/03/28 02:37:30;;;;;;;6.50;5.30;;;;;;;1.20;100.00;96955.22;5008098;28;104852;-66
2023/03/28 02:40:12;;;;;;;6.10;4.60;;;;;;;1.17;100.00;96955.56;5007590;28;105300;-66
2023/03/28 02:43:03;;;;;;;6.00;5.23;;;;;;;1.19;100.00;96959.63;5009456;28;101841;-66
2023/03/28 02:45:58;;;;;;;8.13;5.17;;;;;;;1.17;100.00;96963.41;5045539;27;105253;-66
2023/03/28 02:48:34;;;;;;;6.90;5.67;;;;;;;1.13;100.00;96964.75;5011021;28;105807;-66
2023/03/28 02:51:12;;;;;;;6.13;5.40;;;;;;;1.10;100.00;96973.78;5011345;28;102239;-66
2023/03/28 02:53:48;;;;;;;7.03;5.47;;;;;;;1.05;100.00;96972.72;5011577;28;104887;-66
2023/03/28 02:56:21;;;;;;;7.63;5.77;;;;;;;1.05;100.00;96965.63;5048219;27;103689;-66
2023/03/28 02:59:12;;;;;;;7.67;5.57;;;;;;;1.10;100.00;96973.78;5011599;28;104847;-66
2023/03/28 03:01:40;;;;;;;7.00;5.80;;;;;;;1.07;100.00;96976.78;5010860;28;105066;-65
2023/03/28 03:04:08;;;;;;;9.20;6.20;;;;;;;1.04;100.00;96973.69;5012425;28;101832;-65
2023/03/28 03:06:35;;;;;;;7.80;5.63;;;;;;;1.07;100.00;96976.78;5011328;28;104743;-65
2023/03/28 03:09:03;;;;;;;6.77;5.07;;;;;;;1.07;100.00;96987.25;5010772;28;105375;-65
2023/03/28 03:11:30;;;;;;;6.80;5.83;;;;;;;1.09;100.00;96990.50;5010899;28;101895;-66
2023/03/28 03:13:59;;;;;;;6.73;5.30;;;;;;;1.08;100.00;96994.09;5011376;28;104706;-66
2023/03/28 03:16:28;;;;;;;6.97;5.33;;;;;;;1.11;100.00;97001.59;4994376;28;104672;-66
2023/03/28 03:18:56;;;;;;;7.13;5.30;;;;;;;1.13;100.00;96999.63;5013730;28;101834;-65
2023/03/28 03:21:24;;;;;;;7.57;5.40;;;;;;;1.11;100.00;96991.13;5010628;28;105352;-65
2023/03/28 03:23:51;;;;;;;6.60;4.97;;;;;;;1.11;100.00;97000.81;5010964;28;102301;-66
2023/03/28 03:26:19;;;;;;;6.00;4.83;;;;;;;1.14;100.00;97009.13;5011026;28;104392;-66
2023/03/28 03:29:03;;;;;;;7.07;5.27;;;;;;;1.18;100.00;97006.94;5010241;28;104645;-66
2023/03/28 03:31:33;;;;;;;6.50;5.37;;;;;;;1.17;100.00;97015.81;5010949;28;101881;-66
2023/03/28 03:34:18;;;;;;;6.33;5.07;;;;;;;1.15;100.00;97012.56;5012603;28;102069;-66
2023/03/28 03:36:53;;;;;;;5.83;4.70;;;;;;;1.14;100.00;97005.66;5010437;28;104935;-66
2023/03/28 03:39:20;;;;;;;7.73;5.27;;;;;;;1.15;100.00;97008.13;5010922;28;101804;-66
2023/03/28 03:41:47;;;;;;;6.97;5.17;;;;;;;1.17;100.00;97015.81;5013518;28;104194;-66
2023/03/28 03:44:15;;;;;;;6.93;5.10;;;;;;;1.18;100.00;97014.81;5010976;28;102368;-66
2023/03/28 03:46:43;;;;;;;5.43;4.93;;;;;;;1.21;100.00;97014.47;5010460;28;104816;-66
2023/03/28 03:49:10;;;;;;;5.33;4.93;;;;;;;1.22;100.00;97018.72;5009927;28;105233;-66
2023/03/28 03:51:38;;;;;;;6.17;4.93;;;;;;;1.21;100.00;97028.38;5010501;28;101906;-66
2023/03/28 03:54:06;;;;;;;5.43;4.93;;;;;;;1.23;100.00;97031.63;5009592;28;102708;-65
2023/03/28 03:56:39;;;;;;;5.80;5.20;;;;;;;1.23;100.00;97025.56;5009999;28;105762;-66
2023/03/28 03:59:06;;;;;;;7.10;4.83;;;;;;;1.23;100.00;97030.81;5010539;28;102252;-65
2023/03/28 04:01:38;;;;;;;6.47;5.07;;;;;;;1.21;100.00;97035.44;5010521;28;105428;-66
2023/03/28 04:04:25;;;;;;;4.73;4.30;;;;;;;1.22;100.00;97031.81;5014984;28;102222;-66
2023/03/28 04:07:21;;;;;;;6.90;5.03;;;;;;;1.26;100.00;97041.75;4973649;28;102888;-66
2023/03/28 04:09:51;;;;;;;7.20;5.10;;;;;;;1.23;100.00;97034.25;5009460;28;105745;-66
2023/03/28 04:12:18;;;;;;;5.43;4.93;;;;;;;1.28;100.00;97045.03;5010249;28;101903;-66
2023/03/28 04:14:54;;;;;;;6.97;5.13;;;;;;;1.24;100.00;97038.50;5010228;28;105237;-65
2023/03/28 04:17:33;;;;;;;6.77;5.57;;;;;;;1.29;100.00;97046.66;5021145;28;102121;-65
2023/03/28 04:20:12;;;;;;;7.60;5.27;;;;;;;1.27;100.00;97043.38;5009456;28;105336;-66
2023/03/28 04:22:59;;;;;;;7.63;5.50;;;;;;;1.26;100.00;97046.19;5008276;28;102103;-66
2023/03/28 04:25:28;;;;;;;7.77;5.43;;;;;;;1.28;100.00;97044.19;5008933;28;105385;-66
2023/03/28 04:28:00;;;;;;;7.37;6.17;;;;;;;1.30;100.00;97050.06;5013289;28;101724;-66
2023/03/28 04:30:32;;;;;;;9.03;4.97;;;;;;;1.26;100.00;97049.59;5009411;28;105346;-65
2023/03/28 04:33:17;;;;;;;6.30;5.33;;;;;;;1.30;100.00;97057.91;5007519;28;101945;-66
2023/03/28 04:35:47;;;;;;;6.67;5.53;;;;;;;1.28;100.00;97060.75;5009871;28;104960;-65
2023/03/28 04:38:16;;;;;;;6.90;6.20;;;;;;;1.29;100.00;97053.69;5010788;28;102716;-65
2023/03/28 04:40:44;;;;;;;7.30;5.70;;;;;;;1.24;100.00;97056.00;5010921;28;101774;-65
2023/03/28 04:43:21;;;;;;;7.90;5.90;;;;;;;1.29;100.00;97054.50;5010082;28;104603;-66
2023/03/28 04:45:52;;;;;;;6.67;5.97;;;;;;;1.29;100.00;97057.13;5009149;28;105246;-66
2023/03/28 04:48:21;;;;;;;6.77;5.93;;;;;;;1.30;100.00;97057.91;5013227;28;101988;-66
2023/03/28 04:50:50;;;;;;;6.20;5.60;;;;;;;1.27;100.00;97063.53;5009061;28;105418;-65
2023/03/28 04:53:17;;;;;;;7.97;5.80;;;;;;;1.29;100.00;97075.47;5009321;28;101838;-65
2023/03/28 04:56:04;;;;;;;8.33;5.60;;;;;;;1.28;100.00;97080.88;5010370;28;103210;-66
2023/03/28 04:58:32;;;;;;;6.30;5.70;;;;;;;1.27;100.00;97079.25;5008975;28;104089;-65
2023/03/28 05:01:02;;;;;;;5.90;5.30;;;;;;;1.28;100.00;97068.59;5009621;28;101950;-65
2023/03/28 05:03:55;;;;;;;8.90;5.73;;;;;;;1.35;100.00;97068.69;4993851;28;101869;-65
2023/03/28 05:06:24;;;;;;;7.17;6.03;;;;;;;1.28;100.00;97081.69;5008899;28;104655;-65
2023/03/28 05:08:52;;;;;;;5.77;5.07;;;;;;;1.28;100.00;97080.88;5009167;28;101812;-65
2023/03/28 05:11:20;;;;;;;6.60;5.60;;;;;;;1.31;100.00;97080.53;5012160;28;105008;-64
2023/03/28 05:13:47;;;;;;;7.63;5.63;;;;;;;1.32;100.00;97077.72;5009324;28;101859;-64
2023/03/28 05:16:27;;;;;;;8.33;6.13;;;;;;;1.34;100.00;97081.00;5008915;28;105239;-64
2023/03/28 05:18:55;;;;;;;6.60;5.60;;;;;;;1.28;100.00;97086.94;5009834;28;102458;-64
2023/03/28 05:21:40;;;;;;;6.80;5.70;;;;;;;1.35;100.00;97087.03;5009013;28;101878;-64
2023/03/28 05:24:08;;;;;;;6.27;5.67;;;;;;;1.34;100.00;97101.94;5009037;28;105200;-64
2023/03/28 05:26:36;;;;;;;8.23;5.70;;;;;;;1.35;100.00;97102.75;5008290;28;104960;-64
2023/03/28 05:29:03;;;;;;;6.70;5.47;;;;;;;1.31;100.00;97104.13;5009035;28;102018;-64
2023/03/28 05:31:30;;;;;;;7.27;5.87;;;;;;;1.36;100.00;97104.38;5008756;28;104843;-64
2023/03/28 05:34:13;;;;;;;9.17;5.67;;;;;;;1.33;100.00;97110.81;5012009;28;104182;-64
2023/03/28 05:36:46;;;;;;;5.90;5.33;;;;;;;1.34;100.00;97111.59;5009079;28;104739;-64
2023/03/28 05:39:25;;;;;;;7.00;5.20;;;;;;;1.36;100.00;97117.47;5008157;28;105050;-64
2023/03/28 05:41:58;;;;;;;6.43;4.73;;;;;;;1.36;100.00;97115.69;5009048;28;101928;-64
2023/03/28 05:44:25;;;;;;;6.90;4.10;;;;;;;1.33;100.00;97123.91;5008832;28;105561;-64
2023/03/28 05:47:12;;;;;;;4.93;4.40;;;;;;;1.36;100.00;97125.34;4987713;28;102473;-64
2023/03/28 05:49:39;;;;;;;5.87;4.77;;;;;;;1.40;100.00;97116.13;5008703;28;101884;-64
2023/03/28 05:52:07;;;;;;;5.20;4.00;;;;;;;1.40;100.00;97121.38;5008529;28;105227;-64
2023/03/28 05:54:34;;;;;;;5.37;4.73;;;;;;;1.41;100.00;97130.88;5008250;28;105286;-64
2023/03/28 05:57:02;;;;;;;6.67;4.23;;;;;;;1.36;100.00;97136.66;5012249;28;101757;-64
2023/03/28 05:59:31;;;;;;;6.87;4.43;;;;;;;1.44;100.00;97133.16;5008098;28;103947;-64
2023/03/28 06:01:58;;;;;;;6.20;4.50;;;;;;;1.36;100.00;97146.28;5008601;28;102076;-64
2023/03/28 06:04:26;;;;;;;7.00;4.50;;;;;;;1.41;100.00;97139.56;5008937;28;104089;-64
2023/03/28 06:06:55;;;;;;;6.30;4.63;;;;;;;1.48;100.00;97139.69;5008014;28;104919;-64
2023/03/28 06:09:30;;;;;;;7.00;4.80;;;;;;;1.47;100.00;97144.09;5008354;28;101807;-64
2023/03/28 06:11:59;;;;;;;6.13;4.23;;;;;;;1.47;100.00;97145.88;5008383;28;105534;-64
2023/03/28 06:14:26;;;;;;;10.07;4.67;;;;;;;1.49;100.00;97146.53;5008076;28;105154;-64
2023/03/28 06:16:56;;;;;;;6.60;4.23;;;;;;;1.46;100.00;97147.72;5008231;28;101925;-64
2023/03/28 06:19:25;;;;;;;7.13;4.33;;;;;;;1.54;100.00;97154.69;5014193;28;104926;-64
2023/03/28 06:21:55;;;;;;;6.30;3.97;;;;;;;1.47;100.00;97156.38;5012178;28;101744;-64
2023/03/28 06:24:22;;;;;;;5.37;3.97;;;;;;;1.54;100.00;97144.22;5011969;28;104804;-64
2023/03/28 06:26:51;;;;;;;6.50;4.33;;;;;;;1.56;100.00;97150.09;5011220;28;105005;-64
2023/03/28 06:29:22;;;;;;;6.53;4.70;;;;;;;1.54;100.00;97154.69;5011745;28;101965;-64
2023/03/28 06:31:59;;;;;;;6.37;4.33;;;;;;;1.54;100.00;97159.94;5011850;28;105481;-64
2023/03/28 06:34:26;;;;;;;7.00;5.03;;;;;;;1.50;100.00;97153.41;5011108;28;105090;-64
2023/03/28 06:37:00;;;;;;;8.03;5.17;;;;;;;1.54;100.00;97162.56;5011711;28;101853;-64
2023/03/28 06:39:38;;;;;;;10.23;4.73;;;;;;;1.64;100.00;97171.00;5011749;28;104039;-64
2023/03/28 06:42:07;;;;;;;7.57;4.80;;;;;;;1.81;100.00;97178.53;5013787;28;101855;-64
2023/03/28 06:44:51;;;;;;;4.73;4.03;;;;;;;1.55;100.00;97166.81;5011760;28;103854;-64
2023/03/28 06:47:42;;;;;;;5.97;3.83;;;;;;;1.63;100.00;97175.41;5010808;28;104817;-64
2023/03/28 06:50:10;;;;;;;5.67;3.97;;;;;;;1.71;100.00;97177.97;5012748;28;101990;-64
2023/03/28 06:52:44;;;;;;;5.30;4.10;;;;;;;1.80;100.00;97176.13;5011591;28;104810;-64
2023/03/28 06:55:11;;;;;;;4.33;3.83;;;;;;;1.73;100.00;97180.41;5010853;28;105022;-64
2023/03/28 06:57:40;;;;;;;7.10;4.60;;;;;;;1.90;100.00;97187.16;5011594;28;101844;-64
2023/03/28 07:00:18;;;;;;;5.27;4.03;;;;;;;1.84;100.00;97185.25;4996228;28;105261;-64
2023/03/28 07:03:08;;;;;;;7.07;4.37;;;;;;;1.97;100.00;97183.66;5014936;28;103454;-64
2023/03/28 07:05:40;;;;;;;5.10;3.73;;;;;;;2.12;100.00;97183.66;5011364;28;105084;-64
2023/03/28 07:08:07;;;;;;;5.10;4.07;;;;;;;2.44;100.00;97188.59;5010803;28;105552;-64
2023/03/28 07:10:34;;;;;;;6.40;4.00;;;;;;;2.29;100.00;97182.53;5011344;28;102121;-64
2023/03/28 07:13:02;;;;;;;5.37;3.47;;;;;;;2.47;100.00;97189.03;5011104;28;105146;-64
2023/03/28 07:15:29;;;;;;;4.20;3.53;;;;;;;2.52;100.00;97196.41;5010668;28;104982;-64
2023/03/28 07:17:57;;;;;;;5.50;3.60;;;;;;;2.49;100.00;97204.63;5010916;28;101902;-64
2023/03/28 07:20:24;;;;;;;5.33;3.50;;;;;;;2.49;100.00;97204.63;5010610;28;104901;-64
2023/03/28 07:22:51;;;;;;;4.13;3.10;;;;;;;2.63;100.00;97203.81;5010307;28;105130;-64
2023/03/28 07:25:20;;;;;;;7.00;4.17;;;;;;;2.80;100.00;97207.88;5014511;28;101954;-64
2023/03/28 07:27:48;;;;;;;3.97;2.73;;;;;;;2.85;100.00;97205.53;5010500;28;105167;-64
2023/03/28 07:30:17;;;;;;;5.83;2.97;;;;;;;2.87;100.00;97208.78;5009716;28;101840;-64
2023/03/28 07:32:45;;;;;;;4.80;3.33;;;;;;;2.88;100.00;97220.91;5010820;28;104817;-64
2023/03/28 07:35:12;;;;;;;3.93;2.33;;;;;;;2.85;100.00;97211.59;5010044;28;105351;-64
2023/03/28 07:37:47;;;;;;;4.40;2.67;;;;;;;2.81;100.00;97233.16;5010903;28;101963;-64
2023/03/28 07:40:32;;;;;;;3.47;2.30;;;;;;;2.68;100.00;97238.22;5008460;28;102315;-64
2023/03/28 07:43:00;;;;;;;6.40;2.60;;;;;;;2.63;100.00;97236.13;5010162;28;105042;-64
2023/03/28 07:45:28;;;;;;;3.40;2.17;;;;;;;2.57;100.00;97252.59;5010882;28;102506;-64
2023/03/28 07:47:56;;;;;;;3.63;2.40;;;;;;;2.58;100.00;97248.97;5013577;28;105117;-64
2023/03/28 07:50:24;;;;;;;6.33;2.57;;;;;;;2.68;100.00;97257.41;5010340;28;101847;-64
2023/03/28 07:52:56;;;;;;;3.97;2.33;;;;;;;2.52;100.00;97251.53;5010523;28;104781;-64
2023/03/28 07:55:27;;;;;;;3.30;2.00;;;;;;;2.84;100.00;97257.25;5009996;28;105369;-64
2023/03/28 07:57:54;;;;;;;4.93;2.27;;;;;;;2.99;100.00;97273.00;5010433;28;101880;-64
2023/03/28 08:00:26;;;;;;;5.47;2.50;;;;;;;3.17;100.00;97250.59;5010449;28;104945;-64
2023/03/28 08:03:14;;;;;;;4.33;2.33;;;;;;;3.33;100.00;97252.22;5010759;28;103560;-64
2023/03/28 08:05:50;;;;;;;2.57;2.00;;;;;;;3.10;100.00;97268.09;5010557;28;102071;-64
2023/03/28 08:08:18;;;;;;;4.03;2.00;;;;;;;3.04;100.00;97260.13;5011991;28;102840;-64
2023/03/28 08:10:49;;;;;;;3.83;2.43;;;;;;;3.02;100.00;97270.00;5013123;28;104186;-64
2023/03/28 08:13:17;;;;;;;3.60;2.90;;;;;;;3.26;100.00;97261.81;5010076;28;105220;-64
2023/03/28 08:15:44;;;;;;;3.90;2.67;;;;;;;3.04;100.00;97260.13;5009659;28;103794;-64
2023/03/28 08:18:11;;;;;;;4.10;2.70;;;;;;;3.08;100.00;97261.41;5010044;28;102303;-64
2023/03/28 08:20:40;;;;;;;3.80;2.40;;;;;;;3.27;100.00;97264.28;5010026;28;104853;-64
2023/03/28 08:23:11;;;;;;;3.13;2.40;;;;;;;3.75;100.00;97268.88;5009459;28;105599;-64
2023/03/28 08:25:41;;;;;;;6.80;3.10;;;;;;;3.85;100.00;97265.94;5008507;28;101688;-64
2023/03/28 08:28:10;;;;;;;5.30;2.50;;;;;;;3.83;100.00;97267.97;5009987;28;104926;-64
2023/03/28 08:30:37;;;;;;;3.27;2.30;;;;;;;3.55;100.00;97273.09;5009318;28;105581;-64
2023/03/28 08:33:04;;;;;;;3.83;2.53;;;;;;;3.82;100.00;97261.88;5013387;28;101870;-64
2023/03/28 08:35:33;;;;;;;4.23;2.60;;;;;;;3.55;100.00;97270.47;5009375;28;104335;-63
2023/03/28 08:38:06;;;;;;;3.07;2.73;;;;;;;3.84;100.00;97273.03;5009722;28;101822;-64
2023/03/28 08:40:39;;;;;;;3.17;2.60;;;;;;;4.20;100.00;97262.44;5009762;28;104958;-64
2023/03/28 08:43:27;;;;;;;4.40;2.83;;;;;;;3.84;100.00;97283.56;5009334;28;103017;-64
2023/03/28 08:45:56;;;;;;;8.13;2.40;;;;;;;3.65;100.00;97278.09;5009883;28;101809;-64
2023/03/28 08:48:27;;;;;;;4.17;2.27;;;;;;;3.62;100.00;97270.56;5009247;28;104029;-64
2023/03/28 08:50:58;;;;;;;2.93;2.40;;;;;;;4.15;100.00;97263.00;5009162;28;105147;-64
2023/03/28 08:53:34;;;;;;;2.63;2.00;;;;;;;4.42;100.00;97272.75;5012987;28;101844;-64
2023/03/28 08:56:03;;;;;;;5.90;2.40;;;;;;;4.20;100.00;97272.97;5008932;28;104948;-64
2023/03/28 08:58:37;;;;;;;2.63;2.37;;;;;;;3.82;100.00;97269.75;5009425;28;102157;-64
2023/03/28 09:01:04;;;;;;;4.37;2.80;;;;;;;3.94;100.00;97273.50;5009359;28;104968;-64
2023/03/28 09:03:35;;;;;;;6.80;2.67;;;;;;;4.02;100.00;97273.41;5008841;28;105521;-64
2023/03/28 09:06:20;;;;;;;3.50;2.10;;;;;;;3.90;100.00;97269.66;5043170;27;101890;-64
2023/03/28 09:09:16;;;;;;;3.27;2.30;;;;;;;4.09;100.00;97269.00;5009500;28;104748;-64
2023/03/28 09:11:58;;;;;;;3.17;2.30;;;;;;;3.93;100.00;97277.16;5009068;28;105023;-64
2023/03/28 09:14:45;;;;;;;3.97;2.07;;;;;;;3.77;100.00;97295.81;5008917;28;101791;-64
2023/03/28 09:17:19;;;;;;;3.07;1.80;;;;;;;3.74;100.00;97274.31;5011786;28;105218;-64
2023/03/28 09:20:10;;;;;;;2.60;2.40;;;;;;;4.01;100.00;97290.22;5009033;28;102373;-64
2023/03/28 09:23:05;;;;;;;3.83;2.23;;;;;;;4.32;100.00;97276.72;5007485;28;102285;-63
2023/03/28 09:25:55;;;;;;;3.13;2.40;;;;;;;3.88;100.00;97282.16;5008241;28;103338;-61
2023/03/28 09:28:35;;;;;;;4.17;2.23;;;;;;;4.21;100.00;97283.28;5009047;28;101743;-61
2023/03/28 09:31:04;;;;;;;2.80;2.30;;;;;;;3.90;100.00;97281.97;5008996;28;105138;-61
2023/03/28 09:33:35;;;;;;;3.67;2.03;;;;;;;3.95;100.00;97284.88;5008316;28;105499;-61
2023/03/28 09:36:04;;;;;;;2.13;1.90;;;;;;;3.93;100.00;97284.25;5009209;28;101880;-61
2023/03/28 09:38:35;;;;;;;3.03;2.07;;;;;;;3.92;100.00;97293.94;5007795;28;105490;-61
2023/03/28 09:41:12;;;;;;;3.47;1.90;;;;;;;4.07;99.73;97278.94;5011090;28;105107;-61
2023/03/28 09:43:46;;;;;;;3.63;2.00;;;;;;;4.24;97.89;97296.09;5006974;28;102125;-62
2023/03/28 09:46:38;;;;;;;2.03;1.70;;;;;;;4.46;98.07;97275.81;5009613;28;102185;-61
2023/03/28 09:49:40;;;;;;;4.30;2.17;;;;;;;4.79;96.31;97274.22;5002949;28;101887;-61
2023/03/28 09:52:15;;;;;;;2.60;1.70;;;;;;;4.93;91.59;97271.50;5007700;28;104960;-62
2023/03/28 09:54:44;;;;;;;2.70;2.10;;;;;;;4.93;93.03;97275.94;5007652;28;105384;-61
2023/03/28 09:57:13;;;;;;;2.23;1.63;;;;;;;4.85;95.47;97292.72;5008205;28;101840;-61
2023/03/28 10:00:06;;;;;;;3.80;1.93;;;;;;;4.43;100.00;97299.91;5010308;28;102060;-61
2023/03/28 10:02:52;;;;;;;3.40;1.90;;;;;;;4.25;100.00;97289.03;5007747;28;103771;-61
2023/03/28 10:05:32;;;;;;;3.27;2.17;;;;;;;4.86;100.00;97283.81;5011859;28;101904;-61
2023/03/28 10:08:23;;;;;;;2.83;1.70;;;;;;;5.13;100.00;97276.88;5007780;28;105528;-61
2023/03/28 10:11:14;;;;;;;1.87;1.77;;;;;;;5.67;100.00;97277.75;5009322;28;101715;-61
2023/03/28 10:13:47;;;;;;;2.80;1.83;;;;;;;5.91;100.00;97285.13;5008156;28;104815;-61
2023/03/28 10:16:20;;;;;;;3.57;2.10;;;;;;;5.00;98.89;97272.34;5007367;28;105329;-61
2023/03/28 10:19:04;;;;;;;2.77;1.80;;;;;;;5.25;94.90;97276.13;5007674;28;101937;-61
2023/03/28 10:21:55;;;;;;;2.30;1.80;;;;;;;5.73;98.94;97266.38;5005678;28;102759;-62
2023/03/28 10:24:27;;;;;;;1.97;1.87;;;;;;;5.60;93.65;97263.69;5007635;28;105289;-61
2023/03/28 10:27:05;;;;;;;2.90;2.10;;;;;;;5.43;100.00;97267.69;5007944;28;101896;-61
2023/03/28 10:29:35;;;;;;;3.43;2.03;;;;;;;5.43;99.12;97265.88;5010880;28;104064;-61
2023/03/28 10:32:05;;;;;;;2.57;2.07;;;;;;;5.80;95.69;97264.59;5008092;28;102298;-61
2023/03/28 10:34:40;;;;;;;2.83;2.03;;;;;;;5.54;80.05;97260.03;5008089;28;105209;-61
2023/03/28 10:37:35;;;;;;;2.10;1.80;;;;;;;5.29;87.40;97266.81;5006600;28;103948;-61
2023/03/28 10:40:29;;;;;;;3.93;2.27;;;;;;;5.15;73.47;97264.31;5007720;28;101836;-61
2023/03/28 10:43:31;;;;;;;1.80;1.60;;;;;;;5.18;63.68;97272.66;5007872;28;103297;-61
2023/03/28 10:46:17;;;;;;;2.87;1.30;;;;;;;5.36;59.15;97272.13;5007181;28;105422;-61
2023/03/28 10:49:13;;;;;;;1.80;1.20;;;;;;;5.81;56.01;97266.22;5008057;28;101904;-61
2023/03/28 10:51:42;;;;;;;2.40;1.30;;;;;;;6.36;57.74;97260.63;5007849;28;104611;-61
2023/03/28 10:54:34;;;;;;;2.10;1.73;;;;;;;5.50;65.31;97268.50;5010463;28;105266;-61
2023/03/28 10:57:08;;;;;;;3.27;2.00;;;;;;;5.17;72.84;97272.84;5007394;28;105127;-61
2023/03/28 10:59:45;;;;;;;1.60;1.50;;;;;;;5.65;75.55;97262.09;5007082;28;105578;-61
2023/03/28 11:02:39;;;;;;;1.63;1.53;;;;;;;5.80;65.78;97260.16;5007576;28;102088;-61
2023/03/28 11:05:28;;;;;;;1.90;1.53;;;;;;;6.35;52.44;97253.72;5010881;28;104710;-61
2023/03/28 11:08:02;;;;;;;2.67;1.13;;;;;;;6.23;49.27;97250.84;5010387;28;102810;-61
2023/03/28 11:10:56;;;;;;;2.20;1.40;;;;;;;6.35;49.27;97256.34;5010923;28;101773;-61
2023/03/28 11:13:54;;;;;;;1.93;1.33;;;;;;;6.68;47.75;97254.53;5011288;27;103332;-61
2023/03/28 11:16:35;;;;;;;2.27;1.40;;;;;;;6.58;47.18;97248.81;5013236;28;105546;-61
2023/03/28 11:19:48;;;;;;;3.10;1.70;;;;;;;6.18;48.04;97252.50;5010910;27;102268;-61
2023/03/28 11:22:28;;;;;;;1.73;1.40;;;;;;;6.26;48.37;97249.63;5010513;28;105192;-61
2023/03/28 11:25:08;;;;;;;2.07;1.50;;;;;;;6.19;50.48;97252.28;5044295;27;101994;-61
2023/03/28 11:28:07;;;;;;;2.03;1.50;;;;;;;5.72;52.73;97254.22;5010902;28;102185;-61
2023/03/28 11:30:40;;;;;;;1.60;1.40;;;;;;;6.33;54.58;97240.69;5009863;28;105307;-61
2023/03/28 11:33:49;;;;;;;4.27;1.90;;;;;;;6.88;51.27;97255.31;5007690;28;103895;-61
2023/03/28 11:36:28;;;;;;;2.10;1.40;;;;;;;7.39;53.32;97232.38;5011979;28;102601;-61
2023/03/28 11:39:01;;;;;;;2.97;1.30;;;;;;;7.23;51.57;97260.13;5009941;28;105339;-61
2023/03/28 11:41:31;;;;;;;2.50;1.43;;;;;;;7.55;50.72;97253.06;5014120;28;102053;-61
2023/03/28 11:44:30;;;;;;;3.03;1.70;;;;;;;6.70;50.83;97236.66;5008971;28;102507;-61
2023/03/28 11:47:05;;;;;;;1.70;1.30;;;;;;;6.86;48.65;97239.66;5010352;28;101804;-61
2023/03/28 11:49:38;;;;;;;4.33;1.47;;;;;;;6.84;48.64;97232.94;5010725;28;105472;-61
2023/03/28 11:52:20;;;;;;;1.70;1.60;;;;;;;6.78;45.29;97226.66;5009465;28;104177;-61
2023/03/28 11:54:52;;;;;;;2.07;1.20;;;;;;;6.94;45.36;97231.50;5010307;28;102134;-61
2023/03/28 11:57:27;;;;;;;2.33;1.10;;;;;;;7.80;45.45;97220.34;5010390;28;104824;-61
2023/03/28 12:00:05;;;;;;;1.20;1.10;;;;;;;7.64;43.31;97210.25;5009586;28;105228;-61
2023/03/28 12:02:46;;;;;;;2.43;1.30;;;;;;;7.68;43.50;97222.06;5008172;28;101698;-61
2023/03/28 12:05:23;;;;;;;1.83;1.60;;;;;;;6.70;44.40;97210.22;5013019;28;105342;-61